Myra Eckstein — WDF9473 — position and weather

sailwx.info

Track history (hours):
 
Tides and Currents Weather Stations Pressure Air Temp Water Temp Dewpoint Dewpoint Depression Visibility Wind Speed Wind Dir Waves Ship Positions

Myra Eckstein

Owner: Marquette Transportation Co. LLC, Paducah, KY. More information available from US FCC via Universal Licensing System and Coast Guard Vessel Documentation Center.

Last reported at 2015-May-09 04:31 UTC. Time now 2015-May-30 10:25 UTC.
Position N 30°52' W 091°31'.
Warning: this ship's position is 21 days out of date.

Length 47 m; draft 3.5 m.

Type: Towing. MMSI: 367505510.

Date/timePositionNaut miles runAvg speedWind from/ knotsBaromVisibWave heightAir tempDewpointWater temp
2015-May-09 04:31N 30°52' W 091°31'8 3.4
2015-May-09 02:13N 30°45' W 091°35'13 2.7
2015-May-08 21:19N 30°41' W 091°21'3 4.2
2015-May-08 20:32N 30°39' W 091°18'4 3.7
2015-May-08 19:33N 30°36' W 091°16'4 3.7
2015-May-08 18:33N 30°32' W 091°15'2 1.9
2015-May-08 17:33N 30°30' W 091°16'3 3.1
2015-May-08 16:33N 30°31' W 091°12'5 5.4
2015-May-08 15:34N 30°25' W 091°12'1 1.0
2015-May-08 14:33N 30°24' W 091°12'0 0.0
2015-May-08 13:33N 30°24' W 091°12'0 0.1
2015-May-08 12:33N 30°24' W 091°12'3 3.0
2015-May-08 11:33N 30°22' W 091°14'3 3.0
2015-May-08 10:33N 30°21' W 091°11'2 1.4
2015-May-08 09:18N 30°19' W 091°11'2 2.9
2015-May-08 08:27N 30°17' W 091°13'4 4.2
2015-May-08 07:33N 30°16' W 091°09'  
2015-May-03 01:21N 30°07' W 091°02'9 3.0
2015-May-02 22:32N 30°15' W 091°07'5 3.4
2015-May-02 21:10N 30°19' W 091°09'5 7.7
2015-May-02 20:29N 30°21' W 091°14'3 2.8
2015-May-02 19:27N 30°24' W 091°13'0 0.0
2015-May-02 18:33N 30°24' W 091°13'0 0.0
2015-May-02 17:32N 30°24' W 091°13'3 3.1
2015-May-02 16:34N 30°27' W 091°12'5 4.8
2015-May-02 15:34N 30°30' W 091°16'4 4.2
2015-May-02 14:33N 30°34' W 091°17'8 8.1
2015-May-02 13:33N 30°42' W 091°21'9 8.8
2015-May-02 12:33N 30°44' W 091°31'  
Track history (hours):
 
Tides and Currents Weather Stations Pressure Air Temp Water Temp Dewpoint Dewpoint Depression Visibility Wind Speed Wind Dir Waves Ship Positions

Myra Eckstein

Owner: Marquette Transportation Co. LLC, Paducah, KY. More information available from US FCC via Universal Licensing System and Coast Guard Vessel Documentation Center.

Last reported at 2015-May-09 04:31 UTC. Time now 2015-May-30 10:25 UTC.
Position N 30°52' W 091°31'.
Warning: this ship's position is 21 days out of date.

Length 47 m; draft 3.5 m.

Type: Towing. MMSI: 367505510.

Date/timePositionNaut miles runAvg speedWind from/ knotsBaromVisibWave heightAir tempDewpointWater temp
2015-May-09 04:31N 30°52' W 091°31'8 3.4
2015-May-09 02:13N 30°45' W 091°35'13 2.7
2015-May-08 21:19N 30°41' W 091°21'3 4.2
2015-May-08 20:32N 30°39' W 091°18'4 3.7
2015-May-08 19:33N 30°36' W 091°16'4 3.7
2015-May-08 18:33N 30°32' W 091°15'2 1.9
2015-May-08 17:33N 30°30' W 091°16'3 3.1
2015-May-08 16:33N 30°31' W 091°12'5 5.4
2015-May-08 15:34N 30°25' W 091°12'1 1.0
2015-May-08 14:33N 30°24' W 091°12'0 0.0
2015-May-08 13:33N 30°24' W 091°12'0 0.1
2015-May-08 12:33N 30°24' W 091°12'3 3.0
2015-May-08 11:33N 30°22' W 091°14'3 3.0
2015-May-08 10:33N 30°21' W 091°11'2 1.4
2015-May-08 09:18N 30°19' W 091°11'2 2.9
2015-May-08 08:27N 30°17' W 091°13'4 4.2
2015-May-08 07:33N 30°16' W 091°09'  
2015-May-03 01:21N 30°07' W 091°02'9 3.0
2015-May-02 22:32N 30°15' W 091°07'5 3.4
2015-May-02 21:10N 30°19' W 091°09'5 7.7
2015-May-02 20:29N 30°21' W 091°14'3 2.8
2015-May-02 19:27N 30°24' W 091°13'0 0.0
2015-May-02 18:33N 30°24' W 091°13'0 0.0
2015-May-02 17:32N 30°24' W 091°13'3 3.1
2015-May-02 16:34N 30°27' W 091°12'5 4.8
2015-May-02 15:34N 30°30' W 091°16'4 4.2
2015-May-02 14:33N 30°34' W 091°17'8 8.1
2015-May-02 13:33N 30°42' W 091°21'9 8.8
2015-May-02 12:33N 30°44' W 091°31'  

Dump ship's entire track history